• Join FlightAware (Why Join?)
  • Login
  • US Flag 
02:56PM EST


 

Airport Tracker/Info


-or-


 

Live Flight TrackerFlight Track Log ✈ SKW5517 ✈ 02-May-2013 ✈ KDEN - KPSP

Flight Track Log - Related Links

Times and Time Zones

All times are in EDT time to prevent confusion due to time zone crossing. See the SKW5517 flight status page for this flight to view local times or setup timezone preferences in your user account.

Time Position Orientation Groundspeed Altitude Reporting Facility
EDT Latitude Longitude Course Direction KTS MPH feet Rate Location/Type
09:24PM 39.8333 -104.7833 252° West 209 241 7,000  Level Denver TRACON
09:25PM 39.8167 -104.8667 255° West 274 315 9,000 2,220 Climbing Denver TRACON
09:26PM 39.7123 -105.0966 247° West  Level FlightAware Approximate
09:26PM 39.7983 -104.9089 241° Southwest 273 314 10,300  Level Denver Center
09:27PM 39.6652 -105.2393 252° West  Level FlightAware Approximate
09:27PM 39.7706 -105.0111 251° West 301 346 12,000  Level Denver Center
09:28PM 39.6240 -105.3848 248° West  Level FlightAware Approximate
09:28PM 39.7281 -105.1317 245° Southwest 338 389 14,000  Level Denver Center
09:29PM 39.5754 -105.5246 218° Southwest  Level FlightAware Approximate
09:29PM 39.6853 -105.2517 245° Southwest 365 420 15,800  Level Denver Center
09:30PM 39.5298 -105.6641 252° West  Level FlightAware Approximate
09:30PM 39.6403 -105.3769 245° Southwest 381 438 17,800  Level Denver Center
09:31PM 39.5900 -105.5136 245° Southwest 390 449 19,400 1,620 Climbing Denver Center
09:32PM 39.5442 -105.6431 245° Southwest 402 463 21,200 1,500 Climbing Denver Center
09:33PM 39.5036 -105.7886 250° West 402 463 22,600 1,320 Climbing Denver Center
09:34PM 39.4656 -105.9339 251° West 401 461 24,200 1,320 Climbing Denver Center
09:35PM 39.4178 -106.1011 250° West 419 482 25,700 1,260 Climbing Denver Center
09:36PM 39.3758 -106.2472 250° West 422 486 26,900 960 Climbing Denver Center
09:37PM 39.3369 -106.3892 251° West 433 498 27,800 960 Climbing Denver Center
09:38PM 39.2894 -106.5550 250° West 441 507 29,000 900 Climbing Denver Center
09:39PM 39.2469 -106.6981 249° West 446 513 29,700 1,440 Climbing Denver Center
09:40PM 39.1747 -106.8506 239° Southwest 442 509 32,000 1,560 Climbing Denver Center
09:41PM 39.1100 -106.9761 236° Southwest 438 504 33,000 1,200 Climbing Denver Center
09:42PM 39.0344 -107.1208 236° Southwest 434 499 34,600 1,320 Climbing Denver Center
09:43PM 38.9719 -107.2403 236° Southwest 425 489 35,800 960 Climbing Denver Center
09:44PM 38.8983 -107.3797 236° Southwest 420 483 36,600 660 Climbing Denver Center
09:46PM 38.8400 -107.4950 237° Southwest 406 467 37,300 540 Climbing Denver Center
09:47PM 38.7481 -107.6706 236° Southwest 411 473 38,000 300 Climbing Denver Center
09:48PM 38.6744 -107.8075 235° Southwest 414 476 38,000  Level Denver Center
09:49PM 38.6108 -107.9292 236° Southwest 425 489 38,000  Level Denver Center
09:50PM 38.5467 -108.0497 236° Southwest 427 491 38,000  Level Denver Center
09:51PM 38.4706 -108.1919 236° Southwest 432 497 38,000  Level Denver Center
09:52PM 38.4069 -108.3117 236° Southwest 428 493 38,000  Level Denver Center
09:53PM 38.3306 -108.4517 235° Southwest 430 495 38,000  Level Denver Center
09:54PM 38.2661 -108.5717 236° Southwest 429 494 38,000  Level Denver Center
09:55PM 38.1897 -108.7136 236° Southwest 433 498 38,000  Level Denver Center
09:56PM 38.1139 -108.8528 235° Southwest 429 494 38,000  Level Denver Center
09:57PM 38.0372 -108.9919 235° Southwest 427 491 38,000  Level Denver Center
09:59PM 37.9711 -109.1078 234° Southwest 425 489 38,000  Level Denver Center
10:00PM 37.8947 -109.2464 235° Southwest 429 494 38,000  Level Denver Center
10:01PM 37.8292 -109.3661 235° Southwest 432 497 38,000  Level Denver Center
10:02PM 37.7511 -109.5047 235° Southwest 433 498 38,000  Level Denver Center
10:03PM 37.6861 -109.6228 235° Southwest 430 495 38,000  Level Denver Center
10:04PM 37.6089 -109.7603 235° Southwest 430 495 38,000  Level Denver Center
10:05PM 37.5428 -109.8792 235° Southwest 432 497 38,000  Level Denver Center
10:06PM 37.4547 -110.0350 235° Southwest 430 495 38,000  Level Denver Center
10:07PM 37.3878 -110.1517 234° Southwest 430 495 38,000  Level Denver Center
10:08PM 37.3189 -110.2725 234° Southwest 427 491 38,000  Level Denver Center
10:09PM 37.2486 -110.3931 234° Southwest 429 494 38,000  Level Denver Center
10:10PM 37.1650 -110.5397 234° Southwest 430 495 38,000  Level Denver Center
10:11PM 37.0953 -110.6614 234° Southwest 430 495 38,000  Level Denver Center
10:12PM 37.0258 -110.7817 234° Southwest 427 491 38,000  Level Denver Center
10:13PM 36.9556 -110.9019 234° Southwest 428 493 38,000  Level Denver Center
10:14PM 36.8850 -111.0225 234° Southwest 428 493 38,000  Level Denver Center
10:15PM 36.8161 -111.1422 234° Southwest 426 490 38,000  Level Denver Center
10:16PM 36.7450 -111.2614 233° Southwest 425 489 38,000  Level Denver Center
10:17PM 36.6764 -111.3803 234° Southwest 424 488 38,000  Level Denver Center
10:18PM 36.5911 -111.5228 233° Southwest 426 490 38,000  Level Denver Center
10:19PM 36.5203 -111.6428 234° Southwest 428 493 38,000  Level Denver Center
10:20PM 36.4492 -111.7606 233° Southwest 426 490 38,000  Level Denver Center
10:21PM 36.3794 -111.8781 234° Southwest 424 488 38,000  Level Denver Center
10:22PM 36.3228 -111.9697 233° Southwest 419 482 38,000  Level Los Angeles Center
10:23PM 36.2392 -112.1114 234° Southwest 421 484 38,000  Level Los Angeles Center
10:24PM 36.1672 -112.2286 233° Southwest 424 488 38,000  Level Los Angeles Center
10:25PM 36.0869 -112.3636 234° Southwest 412 474 38,000  Level Los Angeles Center
10:27PM 36.0156 -112.4792 233° Southwest 418 481 38,000  Level Los Angeles Center
10:28PM 35.9456 -112.5925 233° Southwest 420 483 38,000  Level Los Angeles Center
10:29PM 35.8747 -112.7089 233° Southwest 425 489 38,000  Level Los Angeles Center
10:30PM 35.8028 -112.8267 233° Southwest 422 486 38,000  Level Los Angeles Center
10:31PM 35.7350 -112.9381 233° Southwest 423 487 38,000  Level Los Angeles Center
10:32PM 35.6531 -113.0703 233° Southwest 423 487 38,000  Level Los Angeles Center
10:33PM 35.5814 -113.1861 233° Southwest 425 489 38,000  Level Los Angeles Center
10:34PM 35.5094 -113.3006 232° Southwest 422 486 38,000  Level Los Angeles Center
10:35PM 35.4381 -113.4156 233° Southwest 428 493 38,000  Level Los Angeles Center
10:36PM 35.3669 -113.5292 233° Southwest 425 489 38,000  Level Los Angeles Center
10:37PM 35.2811 -113.6658 232° Southwest 426 490 38,000 -1,020 Level Los Angeles Center
10:38PM 35.2081 -113.7817 232° Southwest 431 496 36,000 -2,220 Descending Los Angeles Center
10:39PM 35.1333 -113.9011 233° Southwest 442 509 33,500 -2,280 Descending Los Angeles Center
10:40PM 35.0664 -114.0053 232° Southwest 452 520 31,400 -1,740 Descending Los Angeles Center
10:41PM 34.9750 -114.1486 232° Southwest 443 510 30,000 -720 Descending Los Angeles Center
10:42PM 34.9008 -114.2636 232° Southwest 432 497 30,000  Level Los Angeles Center
10:43PM 34.8256 -114.3822 232° Southwest 439 505 30,000  Level Los Angeles Center
10:44PM 34.7644 -114.4753 231° Southwest 440 506 30,000  Level Los Angeles Center
10:45PM 34.6706 -114.6181 231° Southwest 447 514 30,000 -300 Level Los Angeles Center
10:46PM 34.5794 -114.7536 231° Southwest 447 514 29,400 -1,260 Descending Los Angeles Center
10:47PM 34.5019 -114.8703 231° Southwest 446 513 27,400 -1,920 Descending Los Angeles Center
10:48PM 34.4236 -114.9892 231° Southwest 450 518 25,600 -1,860 Descending Los Angeles Center
10:49PM 34.3456 -115.1119 232° Southwest 461 531 23,600 -1,320 Descending Los Angeles Center
10:50PM 34.2800 -115.2375 238° Southwest 447 514 22,900 -1,740 Descending Los Angeles Center
10:51PM 34.2006 -115.3850 237° Southwest 438 504 20,100 -2,640 Descending Los Angeles Center
10:52PM 34.1386 -115.5011 237° Southwest 417 480 17,600 -2,520 Descending Los Angeles Center
10:53PM 34.0767 -115.6156 237° Southwest 410 472 15,000 -2,520 Descending Los Angeles Center
10:54PM 34.0175 -115.7289 238° Southwest 405 466 12,500 -1,980 Descending Los Angeles Center
10:55PM 33.9642 -115.8397 240° Southwest 392 451 11,000 -960 Descending Los Angeles Center
10:56PM 33.9381 -115.9589 255° West 375 432 10,600 -540 Descending Los Angeles Center
10:57PM 33.9189 -116.0464 255° West 359 413 9,900 -1,440 Descending Los Angeles Center
10:58PM 33.8917 -116.1800 256° West 319 367 7,700 -1,500 Descending Los Angeles Center
10:59PM 33.8697 -116.2717 254° West 302 348 6,900 -780 Descending Los Angeles Center
11:00PM 33.8247 -116.3339 229° Southwest 268 308 6,100 -480 Descending Los Angeles Center
11:01PM 33.7914 -116.3914 235° Southwest 259 298 6,000 -120 Descending Los Angeles Center